createdAt,value
2018-04-19T00:01:00.116Z,18.93
2018-04-19T00:03:35.093Z,22.30
2018-04-19T00:06:10.311Z,19.93
2018-04-19T00:08:44.982Z,17.20
2018-04-19T00:11:20.013Z,16.57
2018-04-19T00:13:54.428Z,19.40
2018-04-19T00:16:30.014Z,21.37
2018-04-19T00:19:04.904Z,21.60
2018-04-19T00:21:39.598Z,19.40
2018-04-19T00:24:14.617Z,18.67
2018-04-19T00:26:49.818Z,19.92
2018-04-19T00:29:24.713Z,19.90
2018-04-19T00:31:59.790Z,20.80
2018-04-19T00:34:35.033Z,17.07
2018-04-19T00:37:10.034Z,20.33
2018-04-19T00:39:45.178Z,17.93
2018-04-19T00:42:20.217Z,20.67
2018-04-19T00:44:55.198Z,22.43
2018-04-19T00:47:30.394Z,16.37
2018-04-19T00:50:05.097Z,18.27
2018-04-19T00:52:51.403Z,22.97
2018-04-19T00:55:26.271Z,17.40
2018-04-19T00:58:01.218Z,23.17
2018-04-19T01:00:35.943Z,19.53
2018-04-19T01:03:11.254Z,28.50
2018-04-19T01:05:46.273Z,21.20
2018-04-19T01:08:21.370Z,20.67
2018-04-19T01:10:56.082Z,21.73
2018-04-19T01:13:30.886Z,19.23
2018-04-19T01:16:06.155Z,17.23
2018-04-19T01:18:41.077Z,19.93
2018-04-19T01:21:16.130Z,20.67
2018-04-19T01:23:50.553Z,21.37
2018-04-19T01:26:25.777Z,21.77
2018-04-19T01:29:01.230Z,19.30
2018-04-19T01:31:36.286Z,21.53
2018-04-19T01:34:11.153Z,22.90
2018-04-19T01:36:46.179Z,21.77
2018-04-19T01:39:20.874Z,19.85
2018-04-19T01:41:55.850Z,21.10
2018-04-19T01:44:31.234Z,19.92
2018-04-19T01:47:05.578Z,20.47
2018-04-19T01:49:40.310Z,22.70
2018-04-19T01:52:15.309Z,24.80
2018-04-19T01:54:50.410Z,25.10
2018-04-19T01:57:25.585Z,27.45
2018-04-19T02:00:00.634Z,22.73
2018-04-19T02:02:35.802Z,27.77
2018-04-19T02:05:11.346Z,22.77
2018-04-19T02:07:46.357Z,22.53
2018-04-19T02:10:20.838Z,25.25
2018-04-19T02:12:56.241Z,23.23
2018-04-19T02:15:31.026Z,25.83
2018-04-19T02:18:05.842Z,22.50
2018-04-19T02:20:40.694Z,25.43
2018-04-19T02:23:15.793Z,21.30
2018-04-19T02:25:51.265Z,28.33
2018-04-19T02:28:26.618Z,32.63
2018-04-19T02:31:01.730Z,27.80
2018-04-19T02:33:36.275Z,28.20
2018-04-19T02:36:11.528Z,25.97
2018-04-19T02:38:46.600Z,29.40
2018-04-19T02:41:22.236Z,29.65
2018-04-19T02:43:57.417Z,24.70
2018-04-19T02:46:32.654Z,30.30
2018-04-19T02:49:07.468Z,29.47
2018-04-19T02:51:42.681Z,35.30
2018-04-19T02:54:18.218Z,30.27
2018-04-19T02:56:52.429Z,37.33
2018-04-19T02:59:27.806Z,29.20
2018-04-19T03:02:02.902Z,33.70
2018-04-19T03:04:37.881Z,39.80
2018-04-19T03:07:14.414Z,36.80
2018-04-19T03:09:49.437Z,38.90
2018-04-19T03:12:24.785Z,30.20
2018-04-19T03:15:00.586Z,33.87
2018-04-19T03:17:35.599Z,36.20
2018-04-19T03:20:10.679Z,41.73
2018-04-19T03:22:45.537Z,36.80
2018-04-19T03:25:20.518Z,35.60
2018-04-19T03:27:55.249Z,34.90
2018-04-19T03:30:30.533Z,38.20
2018-04-19T03:33:05.806Z,34.33
2018-04-19T03:35:40.562Z,36.23
2018-04-19T03:38:15.866Z,32.33
2018-04-19T03:40:51.439Z,32.20
2018-04-19T03:43:26.572Z,31.98
2018-04-19T03:46:01.273Z,40.97
2018-04-19T03:48:36.536Z,36.73
2018-04-19T03:51:11.894Z,34.77
2018-04-19T03:53:47.230Z,37.00
2018-04-19T03:56:22.906Z,32.87
2018-04-19T03:58:57.801Z,29.20
2018-04-19T04:01:32.857Z,32.87
2018-04-19T04:04:08.311Z,35.63
2018-04-19T04:06:43.747Z,34.40
2018-04-19T04:09:18.975Z,33.95
2018-04-19T04:11:53.634Z,39.50
2018-04-19T04:14:28.881Z,40.97
2018-04-19T04:17:15.018Z,42.03
2018-04-19T04:33:17.067Z,37.90
2018-04-19T04:35:52.154Z,33.60
2018-04-19T04:38:27.315Z,34.77
2018-04-19T04:41:02.012Z,33.63
2018-04-19T04:43:37.066Z,33.37
2018-04-19T04:46:11.992Z,29.57
2018-04-19T04:48:46.862Z,34.00
2018-04-19T04:51:21.986Z,30.77
2018-04-19T04:53:56.749Z,27.70
2018-04-19T04:56:31.502Z,36.10
2018-04-19T04:59:06.758Z,33.00
2018-04-19T05:01:41.730Z,30.70
2018-04-19T05:04:17.035Z,30.80
2018-04-19T05:06:51.662Z,37.03
2018-04-19T05:09:26.629Z,37.05
2018-04-19T05:12:01.490Z,32.73
2018-04-19T05:14:36.655Z,33.95
2018-04-19T05:17:11.603Z,36.40
2018-04-19T05:19:46.262Z,39.13
2018-04-19T05:22:21.062Z,37.15
2018-04-19T05:24:55.990Z,33.83
2018-04-19T05:27:30.989Z,33.72
2018-04-19T05:30:05.279Z,36.55
2018-04-19T05:32:40.677Z,36.50
2018-04-19T05:35:15.357Z,36.77
2018-04-19T05:37:50.396Z,34.60
2018-04-19T05:40:25.186Z,36.50
2018-04-19T05:43:00.220Z,36.33
2018-04-19T05:45:35.718Z,34.65
2018-04-19T05:48:10.386Z,35.87
2018-04-19T05:50:45.529Z,40.27
2018-04-19T05:53:20.845Z,39.65
2018-04-19T05:55:55.722Z,41.80
2018-04-19T05:58:31.005Z,42.60
2018-04-19T06:01:05.985Z,44.10
2018-04-19T06:03:41.330Z,39.47
2018-04-19T06:06:16.299Z,38.47
2018-04-19T06:08:51.194Z,36.70
2018-04-19T06:11:26.215Z,42.00
2018-04-19T06:14:00.974Z,40.50
2018-04-19T06:16:35.738Z,37.43
2018-04-19T06:19:10.918Z,40.12
2018-04-19T06:21:45.600Z,38.28
2018-04-19T06:24:21.169Z,39.30
2018-04-19T06:26:56.059Z,42.03
2018-04-19T06:29:31.265Z,37.40
2018-04-19T06:32:06.197Z,40.70
2018-04-19T06:34:41.550Z,36.60
2018-04-19T06:37:16.979Z,34.55
2018-04-19T06:39:52.049Z,37.27
2018-04-19T06:42:28.208Z,42.25
2018-04-19T06:45:03.030Z,36.75
2018-04-19T06:47:37.547Z,35.50
2018-04-19T06:50:12.675Z,35.83
2018-04-19T06:52:47.706Z,32.03
2018-04-19T06:55:23.146Z,35.00
2018-04-19T06:57:59.002Z,29.65
2018-04-19T07:00:33.667Z,31.17
2018-04-19T07:03:09.026Z,35.27
2018-04-19T07:05:44.038Z,35.13
2018-04-19T07:08:19.256Z,33.33
2018-04-19T07:10:54.061Z,33.17
2018-04-19T07:13:29.002Z,32.65
2018-04-19T07:16:03.815Z,36.22
2018-04-19T07:18:38.317Z,36.27
2018-04-19T07:21:12.966Z,31.40
2018-04-19T07:23:48.158Z,30.90
2018-04-19T07:26:23.362Z,32.80
2018-04-19T07:28:58.201Z,31.60
2018-04-19T07:31:33.033Z,31.20
2018-04-19T07:34:07.966Z,31.33
2018-04-19T07:36:42.878Z,28.30
2018-04-19T07:39:18.270Z,24.77
2018-04-19T07:41:53.191Z,27.00
2018-04-19T07:44:28.382Z,24.37
2018-04-19T07:47:03.267Z,23.95
2018-04-19T07:49:38.242Z,24.37
2018-04-19T07:52:13.306Z,18.37
2018-04-19T07:54:48.289Z,20.70
2018-04-19T07:57:23.410Z,24.33
2018-04-19T07:59:58.286Z,18.87
2018-04-19T08:02:33.238Z,22.37
2018-04-19T08:05:08.291Z,19.45
2018-04-19T08:07:43.170Z,18.92
2018-04-19T08:10:18.356Z,17.43
2018-04-19T08:12:54.418Z,19.57
2018-04-19T08:15:29.473Z,18.77
2018-04-19T08:18:04.618Z,18.27
2018-04-19T08:20:39.446Z,19.20
2018-04-19T08:23:15.623Z,21.35
2018-04-19T08:25:50.446Z,23.40
2018-04-19T08:28:25.422Z,18.10
2018-04-19T08:31:00.263Z,21.37
2018-04-19T08:33:35.306Z,22.67
2018-04-19T08:36:10.298Z,30.43
2018-04-19T08:38:45.195Z,20.45
2018-04-19T08:41:19.628Z,16.83
2018-04-19T08:43:54.781Z,18.77
2018-04-19T08:46:29.714Z,23.80
2018-04-19T08:49:04.542Z,23.03
2018-04-19T08:51:39.390Z,19.13
2018-04-19T08:54:15.694Z,21.12
2018-04-19T08:56:50.757Z,22.17
2018-04-19T08:59:25.622Z,19.35
2018-04-19T09:02:00.950Z,17.23
2018-04-19T09:04:35.882Z,21.17
2018-04-19T09:07:11.014Z,18.70
2018-04-19T09:09:46.334Z,18.33
2018-04-19T09:12:21.594Z,14.75
2018-04-19T09:14:56.535Z,18.70
2018-04-19T09:17:31.770Z,20.50
2018-04-19T09:20:06.549Z,16.70
2018-04-19T09:22:41.538Z,14.43
2018-04-19T09:25:16.753Z,14.30
2018-04-19T09:27:51.914Z,19.43
2018-04-19T09:30:27.154Z,20.13
2018-04-19T09:33:01.794Z,17.70
2018-04-19T09:35:36.591Z,17.20
2018-04-19T09:38:11.763Z,16.17
2018-04-19T09:40:46.798Z,15.17
2018-04-19T09:43:21.915Z,16.97
2018-04-19T09:45:56.958Z,15.93
2018-04-19T09:48:31.785Z,22.37
2018-04-19T09:51:06.435Z,15.83
2018-04-19T09:53:41.571Z,26.83
2018-04-19T09:56:16.717Z,25.27
2018-04-19T09:59:02.689Z,17.80
2018-04-19T10:01:42.958Z,17.37
2018-04-19T10:04:24.177Z,18.27
2018-04-19T10:06:59.549Z,17.83
2018-04-19T10:09:34.536Z,17.70
2018-04-19T10:12:09.470Z,19.60
2018-04-19T10:14:44.581Z,17.73
2018-04-19T10:17:19.624Z,16.20
2018-04-19T10:19:54.482Z,16.93
2018-04-19T10:22:29.191Z,19.60
2018-04-19T10:25:04.015Z,19.07
2018-04-19T10:27:39.482Z,17.90
2018-04-19T10:30:15.938Z,16.15
2018-04-19T10:32:50.689Z,16.77
2018-04-19T10:35:26.210Z,18.30
2018-04-19T10:38:01.054Z,17.40
2018-04-19T10:40:36.826Z,16.93
2018-04-19T10:43:11.397Z,16.47
2018-04-19T10:45:46.619Z,15.37
2018-04-19T10:48:21.898Z,14.43
2018-04-19T10:50:56.782Z,20.27
2018-04-19T10:53:31.751Z,18.58
2018-04-19T10:56:06.674Z,17.10
2018-04-19T10:58:41.235Z,15.90
2018-04-19T11:01:16.069Z,18.17
2018-04-19T11:03:50.833Z,15.77
2018-04-19T11:06:25.728Z,16.45
2018-04-19T11:09:01.050Z,16.57
2018-04-19T11:11:36.191Z,14.33
2018-04-19T11:14:11.638Z,15.73
2018-04-19T11:16:46.678Z,16.43
2018-04-19T11:19:21.918Z,15.35
2018-04-19T11:21:56.685Z,12.90
2018-04-19T11:24:31.970Z,16.07
2018-04-19T11:27:07.022Z,16.73
2018-04-19T11:29:41.613Z,17.17
2018-04-19T11:32:17.185Z,15.43
2018-04-19T11:34:51.830Z,16.90
2018-04-19T11:37:27.349Z,16.60
2018-04-19T11:40:02.824Z,14.03
2018-04-19T11:42:37.938Z,11.93
2018-04-19T11:45:12.895Z,14.37
2018-04-19T11:47:48.139Z,15.73
2018-04-19T11:50:23.466Z,13.77
2018-04-19T11:52:57.878Z,12.30
2018-04-19T11:55:33.286Z,11.50
2018-04-19T11:58:08.770Z,11.70
2018-04-19T12:00:43.486Z,12.90
2018-04-19T12:03:18.370Z,12.77
2018-04-19T12:05:53.370Z,11.70
2018-04-19T12:08:28.139Z,9.70
2018-04-19T12:11:03.242Z,9.93
2018-04-19T12:13:38.158Z,10.17
2018-04-19T12:16:13.086Z,8.40
2018-04-19T12:18:48.062Z,9.00
2018-04-19T12:21:23.161Z,8.90
2018-04-19T12:23:57.995Z,7.20
2018-04-19T12:26:32.769Z,6.57
2018-04-19T12:29:08.102Z,5.90
2018-04-19T12:31:42.913Z,6.73
2018-04-19T12:34:18.231Z,6.50
2018-04-19T12:36:53.134Z,8.07
2018-04-19T12:39:28.181Z,9.40
2018-04-19T12:42:02.943Z,7.37
2018-04-19T12:44:37.982Z,8.63
2018-04-19T12:47:13.027Z,9.47
2018-04-19T12:49:47.973Z,9.73
2018-04-19T12:52:23.299Z,10.13
2018-04-19T12:54:58.144Z,15.33
2018-04-19T12:57:34.241Z,12.40
2018-04-19T13:00:08.570Z,12.87
2018-04-19T13:02:44.153Z,15.67
2018-04-19T13:05:19.135Z,13.77
2018-04-19T13:07:54.138Z,15.10
2018-04-19T13:10:29.333Z,14.93
2018-04-19T13:13:04.165Z,14.67
2018-04-19T13:15:39.354Z,16.57
2018-04-19T13:18:14.331Z,19.80
2018-04-19T13:20:49.254Z,19.13
2018-04-19T13:23:24.363Z,17.20
2018-04-19T13:25:59.134Z,19.63
2018-04-19T13:28:34.027Z,18.87
2018-04-19T13:31:09.334Z,20.77
2018-04-19T13:33:44.107Z,16.70
2018-04-19T13:36:19.314Z,17.60
2018-04-19T13:38:54.266Z,16.93
2018-04-19T13:41:29.505Z,18.50
2018-04-19T13:44:04.234Z,16.30
2018-04-19T13:46:39.286Z,17.10
2018-04-19T13:49:14.245Z,15.70
2018-04-19T13:51:49.275Z,13.90
2018-04-19T13:54:24.490Z,15.47
2018-04-19T13:56:59.250Z,12.57
2018-04-19T13:59:34.550Z,14.43
2018-04-19T14:02:09.460Z,15.00
2018-04-19T14:04:44.234Z,18.50
2018-04-19T14:07:19.482Z,15.50
2018-04-19T14:09:54.053Z,15.80
2018-04-19T14:12:29.170Z,19.83
2018-04-19T14:15:03.612Z,18.87
2018-04-19T14:17:38.434Z,17.53
2018-04-19T14:20:13.338Z,15.73
2018-04-19T14:22:48.461Z,15.57
2018-04-19T14:25:23.610Z,18.43
2018-04-19T14:27:58.373Z,15.97
2018-04-19T14:30:33.407Z,16.97
2018-04-19T14:33:08.378Z,15.87
2018-04-19T14:35:43.307Z,18.17
2018-04-19T14:38:18.519Z,15.97
2018-04-19T14:40:53.294Z,15.03
2018-04-19T14:43:28.498Z,15.90
2018-04-19T14:46:03.641Z,14.30
2018-04-19T14:48:38.679Z,14.33
2018-04-19T14:51:13.717Z,15.40
2018-04-19T14:53:48.862Z,12.50
2018-04-19T14:56:24.476Z,16.15
2018-04-19T14:58:59.744Z,13.00
2018-04-19T15:01:34.886Z,13.70
2018-04-19T15:04:10.430Z,14.57
2018-04-19T15:06:45.356Z,14.50
2018-04-19T15:09:20.386Z,11.40
2018-04-19T15:11:55.414Z,10.43
2018-04-19T15:14:30.618Z,10.40
2018-04-19T15:17:05.429Z,11.10
2018-04-19T15:19:40.442Z,9.50
2018-04-19T15:22:16.673Z,9.82
2018-04-19T15:24:51.537Z,8.43
2018-04-19T15:27:26.499Z,11.80
2018-04-19T15:30:01.603Z,9.93
2018-04-19T15:32:36.533Z,11.23
2018-04-19T15:35:11.498Z,12.10
2018-04-19T15:37:46.493Z,10.03
2018-04-19T15:40:21.541Z,12.23
2018-04-19T15:42:56.408Z,10.85
2018-04-19T15:45:31.306Z,12.32
2018-04-19T15:48:05.930Z,10.97
2018-04-19T15:50:40.762Z,11.53
2018-04-19T15:53:16.726Z,13.32
2018-04-19T15:55:52.470Z,10.30
2018-04-19T15:58:27.609Z,13.55
2018-04-19T16:01:02.542Z,14.27
2018-04-19T16:03:37.414Z,13.07
2018-04-19T16:06:12.622Z,14.73
2018-04-19T16:08:47.634Z,13.17
2018-04-19T16:11:23.193Z,12.20
2018-04-19T16:13:58.281Z,13.03
2018-04-19T16:16:33.478Z,12.80
2018-04-19T16:19:08.750Z,26.20
2018-04-19T16:21:43.841Z,12.97
2018-04-19T16:24:18.830Z,21.47
2018-04-19T16:26:53.903Z,10.67
2018-04-19T16:29:28.862Z,19.43
2018-04-19T16:32:03.651Z,10.90
2018-04-19T16:34:38.618Z,9.80
2018-04-19T16:37:13.727Z,17.67
2018-04-19T16:39:48.993Z,10.13
2018-04-19T16:42:24.690Z,11.60
2018-04-19T16:44:59.737Z,7.40
2018-04-19T16:47:35.099Z,8.50
2018-04-19T16:50:10.066Z,7.53
2018-04-19T16:52:45.096Z,8.83
2018-04-19T16:55:20.217Z,8.10
2018-04-19T16:57:54.740Z,10.27
2018-04-19T17:00:29.966Z,10.68
2018-04-19T17:03:04.971Z,11.10
2018-04-19T17:05:39.913Z,12.00
2018-04-19T17:08:14.681Z,10.73
2018-04-19T17:10:49.827Z,13.03
2018-04-19T17:13:24.948Z,13.13
2018-04-19T17:16:00.130Z,10.53
2018-04-19T17:18:35.367Z,13.70
2018-04-19T17:21:09.888Z,13.77
2018-04-19T17:23:44.475Z,13.60
2018-04-19T17:26:19.194Z,17.83
2018-04-19T17:28:54.186Z,14.93
2018-04-19T17:31:29.849Z,18.20
2018-04-19T17:34:04.858Z,19.57
2018-04-19T17:36:39.890Z,25.13
2018-04-19T17:39:15.089Z,20.93
2018-04-19T17:41:50.103Z,16.90
2018-04-19T17:44:25.244Z,24.35
2018-04-19T17:46:59.716Z,27.20
2018-04-19T17:49:35.060Z,22.13
2018-04-19T17:52:10.219Z,22.97
2018-04-19T17:54:45.446Z,25.00
2018-04-19T17:57:21.050Z,26.40
2018-04-19T17:59:56.030Z,24.30
2018-04-19T18:02:31.954Z,26.00
2018-04-19T18:05:06.864Z,21.60
2018-04-19T18:07:41.894Z,22.53
2018-04-19T18:10:17.277Z,21.50
2018-04-19T18:12:52.525Z,22.23
2018-04-19T18:15:27.949Z,22.17
2018-04-19T18:18:03.300Z,22.50
2018-04-19T18:20:38.516Z,20.60
2018-04-19T18:23:13.491Z,21.80
2018-04-19T18:25:48.194Z,17.97
2018-04-19T18:28:23.192Z,17.73
2018-04-19T18:30:58.406Z,18.23
2018-04-19T18:33:33.889Z,15.40
2018-04-19T18:36:08.885Z,17.90
2018-04-19T18:38:43.807Z,15.48
2018-04-19T18:41:19.171Z,16.90
2018-04-19T18:43:54.394Z,14.73
2018-04-19T18:46:29.428Z,16.20
2018-04-19T18:49:03.961Z,15.10
2018-04-19T18:51:39.210Z,17.60
2018-04-19T18:54:14.861Z,20.10
2018-04-19T18:56:49.907Z,13.40
2018-04-19T18:59:25.209Z,15.82
2018-04-19T19:02:00.324Z,19.00
2018-04-19T19:04:35.712Z,17.00
2018-04-19T19:07:10.508Z,16.40
2018-04-19T19:09:45.874Z,24.00
2018-04-19T19:12:21.199Z,26.60
2018-04-19T19:14:56.817Z,20.58
2018-04-19T19:17:42.711Z,22.52
2018-04-19T19:20:17.094Z,23.53
2018-04-19T19:22:51.586Z,18.43
2018-04-19T19:25:26.554Z,17.37
2018-04-19T19:28:01.502Z,19.87
2018-04-19T19:30:36.425Z,24.47
2018-04-19T19:33:11.326Z,27.90
2018-04-19T19:35:46.210Z,27.87
2018-04-19T19:38:21.537Z,21.27
2018-04-19T19:40:56.689Z,24.77
2018-04-19T19:43:32.003Z,24.27
2018-04-19T19:46:07.074Z,25.57
2018-04-19T19:48:41.485Z,27.30
2018-04-19T19:51:17.378Z,35.35
2018-04-19T19:53:52.462Z,25.53
2018-04-19T19:56:27.726Z,28.35
2018-04-19T19:59:03.133Z,28.05
2018-04-19T20:01:37.834Z,25.90
2018-04-19T20:04:13.398Z,23.03
2018-04-19T20:06:48.954Z,22.35
2018-04-19T20:09:24.305Z,23.47
2018-04-19T20:11:59.825Z,24.97
2018-04-19T20:14:35.782Z,27.60
2018-04-19T20:17:10.819Z,27.30
2018-04-19T20:19:45.270Z,28.53
2018-04-19T20:22:20.269Z,20.47
2018-04-19T20:24:54.827Z,31.83
2018-04-19T20:27:30.260Z,22.92
2018-04-19T20:30:04.534Z,25.10
2018-04-19T20:35:38.085Z,24.23
2018-04-19T20:38:13.264Z,24.20
2018-04-19T20:40:48.498Z,24.43
2018-04-19T20:43:24.129Z,25.60
2018-04-19T20:45:59.213Z,24.63
2018-04-19T20:48:34.735Z,23.97
2018-04-19T20:51:10.137Z,24.10
2018-04-19T20:53:45.146Z,23.30
2018-04-19T20:56:20.318Z,28.30
2018-04-19T20:58:55.305Z,23.93
2018-04-19T21:01:30.531Z,28.97
2018-04-19T21:04:06.137Z,27.50
2018-04-19T21:06:41.039Z,27.37
2018-04-19T21:09:17.529Z,27.40
2018-04-19T21:11:52.628Z,26.63
2018-04-19T21:14:27.408Z,29.20
2018-04-19T21:17:02.261Z,29.37
2018-04-19T21:19:36.676Z,24.90
2018-04-19T21:22:12.249Z,25.03
2018-04-19T21:24:47.365Z,26.60
2018-04-19T21:27:21.785Z,34.60
2018-04-19T21:29:57.201Z,30.07
2018-04-19T21:32:32.417Z,29.40
2018-04-19T21:35:07.353Z,34.10
2018-04-19T21:37:42.341Z,32.10
2018-04-19T21:40:17.573Z,33.20
2018-04-19T21:42:52.339Z,35.10
2018-04-19T21:45:27.469Z,29.40
2018-04-19T21:48:03.092Z,33.75
2018-04-19T21:50:38.421Z,33.72
2018-04-19T21:53:13.287Z,31.07
2018-04-19T21:55:48.632Z,32.60
2018-04-19T21:58:24.417Z,36.97
2018-04-19T22:00:59.096Z,32.17
2018-04-19T22:03:34.452Z,34.30
2018-04-19T22:06:09.596Z,33.77
2018-04-19T22:08:44.367Z,32.53
2018-04-19T22:11:19.549Z,33.03
2018-04-19T22:13:54.597Z,31.87
2018-04-19T22:16:29.760Z,32.40
2018-04-19T22:19:04.416Z,36.40
2018-04-19T22:21:39.413Z,30.00
2018-04-19T22:24:14.669Z,30.10
2018-04-19T22:26:49.845Z,33.30
2018-04-19T22:29:25.601Z,32.33
2018-04-19T22:32:00.777Z,30.97
2018-04-19T22:34:36.453Z,34.33
2018-04-19T22:37:11.435Z,32.30
2018-04-19T22:39:46.493Z,31.97
2018-04-19T22:42:21.633Z,31.07
2018-04-19T22:44:56.868Z,32.63
2018-04-19T22:47:32.608Z,34.55
2018-04-19T22:50:07.513Z,30.95
2018-04-19T22:52:42.526Z,34.47
2018-04-19T22:55:17.840Z,35.77
2018-04-19T22:57:52.870Z,31.00
2018-04-19T23:00:30.581Z,28.55
2018-04-19T23:03:05.600Z,32.83
2018-04-19T23:05:40.676Z,31.90
2018-04-19T23:08:15.233Z,29.53
2018-04-19T23:10:50.802Z,33.30
2018-04-19T23:13:26.131Z,28.90
2018-04-19T23:16:01.622Z,33.07
2018-04-19T23:18:36.944Z,32.20
2018-04-19T23:21:11.670Z,36.90
2018-04-19T23:23:46.605Z,32.80
2018-04-19T23:26:21.961Z,36.20
2018-04-19T23:28:56.597Z,31.87
2018-04-19T23:31:31.857Z,29.93
2018-04-19T23:34:07.500Z,30.23
2018-04-19T23:36:42.520Z,33.50
2018-04-19T23:39:17.669Z,32.90
2018-04-19T23:41:52.145Z,30.07
2018-04-19T23:44:26.952Z,32.83
2018-04-19T23:47:02.001Z,32.20
2018-04-19T23:49:37.177Z,32.60
2018-04-19T23:52:12.105Z,34.00
2018-04-19T23:54:47.635Z,29.93
2018-04-19T23:57:22.981Z,28.90
2018-04-19T23:59:57.913Z,32.87
